createdAt,value
2019-05-09T00:00:53.365Z,4.50
2019-05-09T00:03:24.090Z,5.10
2019-05-09T00:05:54.190Z,5.90
2019-05-09T00:08:23.226Z,5.37
2019-05-09T00:10:53.502Z,5.00
2019-05-09T00:13:23.715Z,4.23
2019-05-09T00:15:54.193Z,4.63
2019-05-09T00:18:23.363Z,4.73
2019-05-09T00:21:01.455Z,4.10
2019-05-09T00:23:30.162Z,4.57
2019-05-09T00:25:59.142Z,4.83
2019-05-09T00:28:29.562Z,4.83
2019-05-09T00:31:09.770Z,4.80
2019-05-09T00:33:39.037Z,5.17
2019-05-09T00:36:07.645Z,5.17
2019-05-09T00:38:45.788Z,4.77
2019-05-09T00:41:14.442Z,5.73
2019-05-09T00:43:47.699Z,5.97
2019-05-09T00:46:23.635Z,5.23
2019-05-09T00:49:14.301Z,5.70
2019-05-09T00:51:43.703Z,6.00
2019-05-09T00:54:13.509Z,6.00
2019-05-09T00:56:43.573Z,5.57
2019-05-09T00:59:13.514Z,5.80
2019-05-09T01:01:43.663Z,6.37
2019-05-09T01:04:13.589Z,5.90
2019-05-09T01:06:43.407Z,5.57
2019-05-09T01:09:13.759Z,5.93
2019-05-09T01:11:43.973Z,6.20
2019-05-09T01:14:14.175Z,6.37
2019-05-09T01:16:44.059Z,5.60
2019-05-09T01:19:14.138Z,6.13
2019-05-09T01:21:43.817Z,5.90
2019-05-09T01:24:13.936Z,6.20
2019-05-09T01:26:43.522Z,5.67
2019-05-09T01:29:13.812Z,5.63
2019-05-09T01:31:43.597Z,5.37
2019-05-09T01:34:25.316Z,5.63
2019-05-09T01:37:07.254Z,5.67
2019-05-09T01:39:36.193Z,5.20
2019-05-09T01:42:04.889Z,5.40
2019-05-09T01:44:33.705Z,5.57
2019-05-09T01:47:03.810Z,6.00
2019-05-09T01:49:34.144Z,5.73
2019-05-09T01:52:03.559Z,5.30
2019-05-09T01:54:33.302Z,5.90
2019-05-09T01:57:03.358Z,5.70
2019-05-09T01:59:33.930Z,5.57
2019-05-09T02:02:08.180Z,5.67
2019-05-09T02:04:33.546Z,5.17
2019-05-09T02:07:04.065Z,5.37
2019-05-09T02:09:34.241Z,5.57
2019-05-09T02:12:03.871Z,6.10
2019-05-09T02:14:43.727Z,5.90
2019-05-09T02:17:33.401Z,5.70
2019-05-09T02:20:03.813Z,6.43
2019-05-09T02:22:35.473Z,6.37
2019-05-09T02:25:05.476Z,5.47
2019-05-09T02:27:34.135Z,6.03
2019-05-09T02:30:05.855Z,5.53
2019-05-09T02:32:34.748Z,5.97
2019-05-09T02:35:04.953Z,6.37
2019-05-09T02:37:33.970Z,5.50
2019-05-09T02:40:02.582Z,6.17
2019-05-09T02:42:31.193Z,6.40
2019-05-09T02:44:59.889Z,6.23
2019-05-09T02:47:29.133Z,5.40
2019-05-09T02:49:58.980Z,4.60
2019-05-09T02:52:28.718Z,4.50
2019-05-09T02:54:58.342Z,4.60
2019-05-09T02:57:29.429Z,4.20
2019-05-09T03:00:20.123Z,4.53
2019-05-09T03:03:14.470Z,4.67
2019-05-09T03:05:43.078Z,4.23
2019-05-09T03:08:11.680Z,4.43
2019-05-09T03:10:40.402Z,4.03
2019-05-09T03:13:09.593Z,3.97
2019-05-09T03:16:02.111Z,3.40
2019-05-09T03:18:30.768Z,3.90
2019-05-09T03:21:09.415Z,3.83
2019-05-09T03:23:40.576Z,4.03
2019-05-09T03:26:10.853Z,4.43
2019-05-09T03:28:52.813Z,3.73
2019-05-09T03:31:29.570Z,4.23
2019-05-09T03:33:59.172Z,3.80
2019-05-09T03:36:28.135Z,3.90
2019-05-09T03:38:57.818Z,4.07
2019-05-09T03:41:28.172Z,3.83
2019-05-09T03:43:58.533Z,4.17
2019-05-09T03:46:34.923Z,3.97
2019-05-09T03:49:04.177Z,5.30
2019-05-09T03:51:32.811Z,4.03
2019-05-09T03:54:01.412Z,4.30
2019-05-09T03:56:34.585Z,4.87
2019-05-09T03:59:03.201Z,3.83
2019-05-09T04:01:31.816Z,4.27
2019-05-09T04:04:00.450Z,4.50
2019-05-09T04:06:29.113Z,3.80
2019-05-09T04:08:58.546Z,3.90
2019-05-09T04:11:27.657Z,4.23
2019-05-09T04:14:00.905Z,4.40
2019-05-09T04:16:29.488Z,3.90
2019-05-09T04:18:58.282Z,4.30
2019-05-09T04:21:27.959Z,4.03
2019-05-09T04:23:58.445Z,4.77
2019-05-09T04:26:49.180Z,3.30
2019-05-09T04:29:18.357Z,3.80
2019-05-09T04:31:48.354Z,3.87
2019-05-09T04:34:18.317Z,4.23
2019-05-09T04:36:48.336Z,4.63
2019-05-09T04:39:23.475Z,4.20
2019-05-09T04:41:50.559Z,3.90
2019-05-09T04:44:30.306Z,3.87
2019-05-09T04:47:03.170Z,3.80
2019-05-09T04:49:29.989Z,3.37
2019-05-09T04:51:59.596Z,3.70
2019-05-09T04:54:28.209Z,3.33
2019-05-09T04:56:57.461Z,3.60
2019-05-09T04:59:47.563Z,3.33
2019-05-09T05:02:40.165Z,3.40
2019-05-09T05:05:08.807Z,3.40
2019-05-09T05:07:37.704Z,3.53
2019-05-09T05:10:08.982Z,3.20
2019-05-09T05:12:38.081Z,4.20
2019-05-09T05:15:08.026Z,3.70
2019-05-09T05:17:37.751Z,4.53
2019-05-09T05:20:09.072Z,4.27
2019-05-09T05:22:47.793Z,4.27
2019-05-09T05:25:17.849Z,4.70
2019-05-09T05:28:08.468Z,4.80
2019-05-09T05:30:37.357Z,4.27
2019-05-09T05:33:27.815Z,4.03
2019-05-09T05:35:58.604Z,4.53
2019-05-09T05:38:27.614Z,4.20
2019-05-09T05:40:57.872Z,4.03
2019-05-09T05:43:38.533Z,3.87
2019-05-09T05:46:19.178Z,4.43
2019-05-09T05:48:48.921Z,4.43
2019-05-09T05:51:18.463Z,3.77
2019-05-09T05:53:49.517Z,4.20
2019-05-09T05:56:18.132Z,4.13
2019-05-09T05:58:48.784Z,4.33
2019-05-09T06:01:18.784Z,4.30
2019-05-09T06:03:48.146Z,5.07
2019-05-09T06:06:17.520Z,4.53
2019-05-09T06:08:48.392Z,4.10
2019-05-09T06:11:17.673Z,4.40
2019-05-09T06:13:54.471Z,4.40
2019-05-09T06:16:18.197Z,5.17
2019-05-09T06:18:47.609Z,4.50
2019-05-09T06:21:17.729Z,4.13
2019-05-09T06:23:48.631Z,3.53
2019-05-09T06:26:18.520Z,3.50
2019-05-09T06:28:48.174Z,3.90
2019-05-09T06:31:17.868Z,3.80
2019-05-09T06:33:52.987Z,3.53
2019-05-09T06:36:18.821Z,4.10
2019-05-09T06:38:48.755Z,4.13
2019-05-09T06:41:37.887Z,3.13
2019-05-09T06:44:25.267Z,3.50
2019-05-09T06:47:02.733Z,3.43
2019-05-09T06:49:37.634Z,3.53
2019-05-09T06:52:08.541Z,3.90
2019-05-09T06:54:41.296Z,4.33
2019-05-09T06:57:07.955Z,4.03
2019-05-09T06:59:38.166Z,4.10
2019-05-09T07:02:12.715Z,4.97
2019-05-09T07:04:44.933Z,4.57
2019-05-09T07:07:28.034Z,2.97
2019-05-09T07:09:58.809Z,4.10
2019-05-09T07:12:27.557Z,3.67
2019-05-09T07:14:58.126Z,3.60
2019-05-09T07:17:31.789Z,4.27
2019-05-09T07:19:58.972Z,3.70
2019-05-09T07:22:35.145Z,4.27
2019-05-09T07:25:10.741Z,3.90
2019-05-09T07:27:39.031Z,3.70
2019-05-09T07:30:29.029Z,3.47
2019-05-09T07:33:04.697Z,3.73
2019-05-09T07:35:33.349Z,4.00
2019-05-09T07:38:02.274Z,3.97
2019-05-09T07:40:30.980Z,3.53
2019-05-09T07:42:59.569Z,3.60
2019-05-09T07:45:28.298Z,4.10
2019-05-09T07:47:58.425Z,3.57
2019-05-09T07:50:27.778Z,4.20
2019-05-09T07:52:58.174Z,3.90
2019-05-09T07:55:27.518Z,4.30
2019-05-09T07:57:58.947Z,4.50
2019-05-09T08:00:32.623Z,3.60
2019-05-09T08:03:01.319Z,3.97
2019-05-09T08:05:30.310Z,4.23
2019-05-09T08:07:58.993Z,4.47
2019-05-09T08:10:30.644Z,4.10
2019-05-09T08:12:58.630Z,3.90
2019-05-09T08:15:28.025Z,3.90
2019-05-09T08:18:17.433Z,4.67
2019-05-09T08:20:47.892Z,5.17
2019-05-09T08:23:18.060Z,4.00
2019-05-09T08:25:48.492Z,5.40
2019-05-09T08:28:17.664Z,4.53
2019-05-09T08:30:48.523Z,4.50
2019-05-09T08:33:18.373Z,4.40
2019-05-09T08:35:52.299Z,4.80
2019-05-09T08:38:17.932Z,4.63
2019-05-09T08:40:48.537Z,5.80
2019-05-09T08:43:37.742Z,4.73
2019-05-09T08:46:07.839Z,4.90
2019-05-09T08:48:37.867Z,5.00
2019-05-09T08:51:18.073Z,5.83
2019-05-09T08:53:48.228Z,5.80
2019-05-09T08:56:17.766Z,6.47
2019-05-09T08:58:48.491Z,6.70
2019-05-09T09:01:27.354Z,7.00
2019-05-09T09:03:48.450Z,6.70
2019-05-09T09:06:18.393Z,6.03
2019-05-09T09:08:48.298Z,6.37
2019-05-09T09:11:18.771Z,5.83
2019-05-09T09:13:48.374Z,4.93
2019-05-09T09:16:21.618Z,6.33
2019-05-09T09:18:48.224Z,5.20
2019-05-09T09:21:18.297Z,5.33
2019-05-09T09:23:50.615Z,5.50
2019-05-09T09:26:18.353Z,4.73
2019-05-09T09:28:48.448Z,5.00
2019-05-09T09:31:17.987Z,5.63
2019-05-09T09:33:48.052Z,5.63
2019-05-09T09:36:18.190Z,5.20
2019-05-09T09:38:48.023Z,5.77
2019-05-09T09:41:18.206Z,5.80
2019-05-09T09:43:47.728Z,5.30
2019-05-09T09:46:18.178Z,5.93
2019-05-09T09:48:48.070Z,6.07
2019-05-09T09:51:18.645Z,6.10
2019-05-09T09:53:48.911Z,5.87
2019-05-09T09:56:21.922Z,6.00
2019-05-09T09:58:57.562Z,6.50
2019-05-09T10:01:40.447Z,6.13
2019-05-09T10:04:20.655Z,6.77
2019-05-09T10:06:44.658Z,7.23
2019-05-09T10:09:13.281Z,6.63
2019-05-09T10:11:42.280Z,10.10
2019-05-09T10:14:21.727Z,8.60
2019-05-09T10:17:10.392Z,8.50
2019-05-09T10:19:52.929Z,7.67
2019-05-09T10:22:25.458Z,7.93
2019-05-09T10:24:53.544Z,8.30
2019-05-09T10:27:24.520Z,8.50
2019-05-09T10:30:12.465Z,9.17
2019-05-09T10:32:41.094Z,8.70
2019-05-09T10:35:11.417Z,8.57
2019-05-09T10:37:40.076Z,8.03
2019-05-09T10:40:11.557Z,7.70
2019-05-09T10:42:50.854Z,5.77
2019-05-09T10:45:48.405Z,5.80
2019-05-09T10:48:23.460Z,5.37
2019-05-09T10:50:53.872Z,5.13
2019-05-09T10:53:18.085Z,4.03
2019-05-09T10:55:48.102Z,5.27
2019-05-09T10:58:19.655Z,4.70
2019-05-09T11:00:48.319Z,3.97
2019-05-09T11:03:18.031Z,4.40
2019-05-09T11:05:46.916Z,3.73
2019-05-09T11:08:18.330Z,3.80
2019-05-09T11:10:47.497Z,4.73
2019-05-09T11:13:18.145Z,4.60
2019-05-09T11:15:48.026Z,4.10
2019-05-09T11:18:18.570Z,4.40
2019-05-09T11:20:47.333Z,3.80
2019-05-09T11:23:15.988Z,3.00
2019-05-09T11:25:44.591Z,3.50
2019-05-09T11:28:15.079Z,3.70
2019-05-09T11:30:43.662Z,4.40
2019-05-09T11:33:12.295Z,4.07
2019-05-09T11:35:40.909Z,4.37
2019-05-09T11:38:09.810Z,4.80
2019-05-09T11:40:38.513Z,4.57
2019-05-09T11:43:07.101Z,4.50
2019-05-09T11:45:35.696Z,5.47
2019-05-09T11:48:04.312Z,4.13
2019-05-09T11:50:33.222Z,4.13
2019-05-09T11:53:02.046Z,3.67
2019-05-09T11:55:36.447Z,3.30
2019-05-09T11:58:01.017Z,4.33
2019-05-09T12:00:48.917Z,4.50
2019-05-09T12:03:18.889Z,4.23
2019-05-09T12:05:47.809Z,4.83
2019-05-09T12:08:17.711Z,4.20
2019-05-09T12:10:46.558Z,4.73
2019-05-09T12:13:15.133Z,5.67
2019-05-09T12:15:43.737Z,6.27
2019-05-09T12:18:12.320Z,5.93
2019-05-09T12:20:40.984Z,5.80
2019-05-09T12:23:09.583Z,5.97
2019-05-09T12:25:38.789Z,6.67
2019-05-09T12:28:07.944Z,4.90
2019-05-09T12:30:38.002Z,4.60
2019-05-09T12:33:08.573Z,4.57
2019-05-09T12:35:38.502Z,5.23
2019-05-09T12:38:08.360Z,6.53
2019-05-09T12:40:49.400Z,5.80
2019-05-09T12:43:30.221Z,5.03
2019-05-09T12:45:58.796Z,5.00
2019-05-09T12:48:28.037Z,4.97
2019-05-09T12:50:58.582Z,4.30
2019-05-09T12:53:28.035Z,4.17
2019-05-09T12:55:59.903Z,4.63
2019-05-09T12:58:29.066Z,4.97
2019-05-09T13:00:58.625Z,4.80
2019-05-09T13:03:28.235Z,5.20
2019-05-09T13:05:58.043Z,4.57
2019-05-09T13:08:27.812Z,4.73
2019-05-09T13:10:58.358Z,6.13
2019-05-09T13:13:29.077Z,6.63
2019-05-09T13:16:14.427Z,5.90
2019-05-09T13:19:03.164Z,5.77
2019-05-09T13:21:32.900Z,5.67
2019-05-09T13:24:02.281Z,5.43
2019-05-09T13:26:31.132Z,4.90
2019-05-09T13:28:59.837Z,5.30
2019-05-09T13:31:29.392Z,5.10
2019-05-09T13:33:58.754Z,4.67
2019-05-09T13:36:28.503Z,3.70
2019-05-09T13:39:04.158Z,4.63
2019-05-09T13:41:27.938Z,4.07
2019-05-09T13:43:59.251Z,4.47
2019-05-09T13:46:28.351Z,3.90
2019-05-09T13:49:11.050Z,3.30
2019-05-09T13:51:31.745Z,2.97
2019-05-09T13:54:00.464Z,4.10
2019-05-09T13:56:29.203Z,3.37
2019-05-09T13:58:59.807Z,4.03
2019-05-09T14:01:28.779Z,3.50
2019-05-09T14:03:57.820Z,3.20
2019-05-09T14:06:29.047Z,3.23
2019-05-09T14:08:59.823Z,3.37
2019-05-09T14:11:29.108Z,3.13
2019-05-09T14:13:58.092Z,2.87
2019-05-09T14:16:28.781Z,2.90
2019-05-09T14:19:23.963Z,3.13
2019-05-09T14:21:29.985Z,3.30
2019-05-09T14:24:10.916Z,3.20
2019-05-09T14:26:29.213Z,3.90
2019-05-09T14:28:58.368Z,4.87
2019-05-09T14:31:31.815Z,5.10
2019-05-09T14:33:57.536Z,5.20
2019-05-09T14:36:27.800Z,4.17
2019-05-09T14:38:58.042Z,3.77
2019-05-09T14:41:33.886Z,4.47
2019-05-09T14:44:02.506Z,4.53
2019-05-09T14:46:31.105Z,3.67
2019-05-09T14:48:59.700Z,3.77
2019-05-09T14:51:28.619Z,3.93
2019-05-09T14:53:59.375Z,3.97
2019-05-09T14:56:28.123Z,4.07
2019-05-09T14:58:58.037Z,3.40
2019-05-09T15:01:28.661Z,3.37
2019-05-09T15:03:58.612Z,3.97
2019-05-09T15:06:28.244Z,3.43
2019-05-09T15:08:58.197Z,3.87
2019-05-09T15:11:28.120Z,3.93
2019-05-09T15:13:58.469Z,3.50
2019-05-09T15:16:28.216Z,2.80
2019-05-09T15:18:58.414Z,4.00
2019-05-09T15:21:27.293Z,2.77
2019-05-09T15:23:58.444Z,3.07
2019-05-09T15:26:27.576Z,2.90
2019-05-09T15:28:57.861Z,2.73
2019-05-09T15:31:28.634Z,4.17
2019-05-09T15:33:57.209Z,2.67
2019-05-09T15:36:25.829Z,3.37
2019-05-09T15:38:54.448Z,3.53
2019-05-09T15:41:23.054Z,3.37
2019-05-09T15:43:51.657Z,3.20
2019-05-09T15:46:28.305Z,4.20
2019-05-09T15:48:58.243Z,3.77
2019-05-09T15:51:27.963Z,3.27
2019-05-09T15:53:57.752Z,3.40
2019-05-09T15:56:28.826Z,3.73
2019-05-09T15:58:57.987Z,3.20
2019-05-09T16:01:27.842Z,4.20
2019-05-09T16:03:56.763Z,3.50
2019-05-09T16:06:33.022Z,2.80
2019-05-09T16:08:58.833Z,3.40
2019-05-09T16:11:28.602Z,3.30
2019-05-09T16:13:57.446Z,3.07
2019-05-09T16:16:28.474Z,3.20
2019-05-09T16:18:58.307Z,4.13
2019-05-09T16:21:29.701Z,3.23
2019-05-09T16:23:59.476Z,3.30
2019-05-09T16:26:29.280Z,3.33
2019-05-09T16:28:58.219Z,3.57
2019-05-09T16:31:27.885Z,4.03
2019-05-09T16:34:17.799Z,3.67
2019-05-09T16:36:47.973Z,3.10
2019-05-09T16:39:20.009Z,3.10
2019-05-09T16:41:48.891Z,2.83
2019-05-09T16:44:18.472Z,3.03
2019-05-09T16:46:50.148Z,3.17
2019-05-09T16:49:19.914Z,3.63
2019-05-09T16:51:48.908Z,2.50
2019-05-09T16:54:18.121Z,3.50
2019-05-09T16:56:47.057Z,4.10
2019-05-09T16:59:34.211Z,3.33
2019-05-09T17:02:17.859Z,3.27
2019-05-09T17:04:33.299Z,4.17
2019-05-09T17:07:02.144Z,4.33
2019-05-09T17:09:32.227Z,3.37
2019-05-09T17:12:00.849Z,3.70
2019-05-09T17:14:31.124Z,4.70
2019-05-09T17:17:00.154Z,3.67
2019-05-09T17:19:48.097Z,3.43
2019-05-09T17:22:21.653Z,4.03
2019-05-09T17:24:50.841Z,5.27
2019-05-09T17:27:19.467Z,4.10
2019-05-09T17:29:48.167Z,3.43
2019-05-09T17:32:18.289Z,4.20
2019-05-09T17:34:47.651Z,4.13
2019-05-09T17:37:17.823Z,3.50
2019-05-09T17:39:46.770Z,4.00
2019-05-09T17:42:18.505Z,3.63
2019-05-09T17:44:48.774Z,4.50
2019-05-09T17:47:17.631Z,3.80
2019-05-09T17:49:48.278Z,5.00
2019-05-09T17:52:19.461Z,3.40
2019-05-09T17:54:48.671Z,3.20
2019-05-09T17:57:18.828Z,3.30
2019-05-09T17:59:48.811Z,3.60
2019-05-09T18:02:17.783Z,5.13
2019-05-09T18:04:48.032Z,5.83
2019-05-09T18:07:18.095Z,4.77
2019-05-09T18:09:48.319Z,4.90
2019-05-09T18:12:18.961Z,5.13
2019-05-09T18:14:50.000Z,4.33
2019-05-09T18:17:18.596Z,5.47
2019-05-09T18:19:47.276Z,5.07
2019-05-09T18:22:15.849Z,4.87
2019-05-09T18:24:44.446Z,4.57
2019-05-09T18:27:13.379Z,4.47
2019-05-09T18:29:43.268Z,4.20
2019-05-09T18:32:23.469Z,3.80
2019-05-09T18:34:58.505Z,5.30
2019-05-09T18:37:28.188Z,4.60
2019-05-09T18:39:58.168Z,4.67
2019-05-09T18:42:27.545Z,4.73
2019-05-09T18:44:56.298Z,4.57
2019-05-09T18:47:24.957Z,4.33
2019-05-09T18:49:53.588Z,3.83
2019-05-09T18:52:37.604Z,4.17
2019-05-09T18:55:06.834Z,5.50
2019-05-09T18:57:35.801Z,5.80
2019-05-09T19:00:05.497Z,6.67
2019-05-09T19:02:34.116Z,6.53
2019-05-09T19:05:02.735Z,6.53
2019-05-09T19:07:31.392Z,6.83
2019-05-09T19:09:59.986Z,5.97
2019-05-09T19:12:28.552Z,6.83
2019-05-09T19:14:57.164Z,6.23
2019-05-09T19:17:43.707Z,7.30
2019-05-09T19:20:28.592Z,6.57
2019-05-09T19:22:57.197Z,8.07
2019-05-09T19:25:25.801Z,7.73
2019-05-09T19:27:54.452Z,8.00
2019-05-09T19:30:23.302Z,8.20
2019-05-09T19:32:51.902Z,6.60
2019-05-09T19:35:20.551Z,7.07
2019-05-09T19:37:49.173Z,7.17
2019-05-09T19:40:20.177Z,7.30
2019-05-09T19:42:48.412Z,7.27
2019-05-09T19:45:17.079Z,7.67
2019-05-09T19:47:45.768Z,7.20
2019-05-09T19:50:14.346Z,8.80
2019-05-09T19:52:42.945Z,8.10
2019-05-09T19:55:11.545Z,7.47
2019-05-09T19:57:40.185Z,5.50
2019-05-09T20:00:09.002Z,6.37
2019-05-09T20:02:37.652Z,4.97
2019-05-09T20:05:06.401Z,6.17
2019-05-09T20:07:35.004Z,5.33
2019-05-09T20:10:23.005Z,6.60
2019-05-09T20:13:12.200Z,7.00
2019-05-09T20:15:40.893Z,6.77
2019-05-09T20:18:09.780Z,5.20
2019-05-09T20:20:38.385Z,5.53
2019-05-09T20:23:07.030Z,5.00
2019-05-09T20:25:35.679Z,4.90
2019-05-09T20:28:04.371Z,5.13
2019-05-09T20:30:33.041Z,5.83
2019-05-09T20:33:01.704Z,6.60
2019-05-09T20:35:30.328Z,5.40
2019-05-09T20:37:59.230Z,6.50
2019-05-09T20:40:28.068Z,7.67
2019-05-09T20:42:56.863Z,7.87
2019-05-09T20:45:26.151Z,6.30
2019-05-09T20:47:54.934Z,7.23
2019-05-09T20:50:23.988Z,7.20
2019-05-09T20:53:00.874Z,8.33
2019-05-09T20:55:23.586Z,8.97
2019-05-09T20:57:52.354Z,9.27
2019-05-09T21:00:21.172Z,10.13
2019-05-09T21:02:50.013Z,11.73
2019-05-09T21:05:18.814Z,11.03
2019-05-09T21:07:47.948Z,12.67
2019-05-09T21:10:16.756Z,11.87
2019-05-09T21:12:45.712Z,16.27
2019-05-09T21:15:14.541Z,16.27
2019-05-09T21:17:43.340Z,16.80
2019-05-09T21:20:12.150Z,19.77
2019-05-09T21:22:40.947Z,16.83
2019-05-09T21:25:09.737Z,18.10
2019-05-09T21:27:38.531Z,15.27
2019-05-09T21:30:07.536Z,16.17
2019-05-09T21:32:36.313Z,15.30
2019-05-09T21:35:05.001Z,15.83
2019-05-09T21:37:33.594Z,15.53
2019-05-09T21:40:02.225Z,16.27
2019-05-09T21:42:31.176Z,13.77
2019-05-09T21:44:59.782Z,15.03
2019-05-09T21:47:28.401Z,15.57
2019-05-09T21:49:57.076Z,14.90
2019-05-09T21:52:25.653Z,15.13
2019-05-09T21:54:54.474Z,13.87
2019-05-09T21:57:23.414Z,16.20
2019-05-09T21:59:54.177Z,14.97
2019-05-09T22:02:22.799Z,16.57
2019-05-09T22:04:52.275Z,17.00
2019-05-09T22:07:20.987Z,20.50
2019-05-09T22:09:49.625Z,14.73
2019-05-09T22:12:18.282Z,12.20
2019-05-09T22:14:48.547Z,10.73
2019-05-09T22:17:23.642Z,11.37
2019-05-09T22:19:52.546Z,13.83
2019-05-09T22:22:21.265Z,14.23
2019-05-09T22:24:49.930Z,13.60
2019-05-09T22:27:19.941Z,9.70
2019-05-09T22:29:48.735Z,8.43
2019-05-09T22:32:17.401Z,8.77
2019-05-09T22:34:46.194Z,6.50
2019-05-09T22:37:15.340Z,7.03
2019-05-09T22:39:46.906Z,7.50
2019-05-09T22:42:18.160Z,8.60
2019-05-09T22:44:46.858Z,8.90
2019-05-09T22:47:16.380Z,7.70
2019-05-09T22:49:45.070Z,8.40
2019-05-09T22:52:13.646Z,9.10
2019-05-09T22:54:42.217Z,9.70
2019-05-09T22:57:10.816Z,10.43
2019-05-09T22:59:39.413Z,11.13
2019-05-09T23:02:08.001Z,13.30
2019-05-09T23:04:36.602Z,11.13
2019-05-09T23:07:05.224Z,11.50
2019-05-09T23:09:33.813Z,11.50
2019-05-09T23:12:02.389Z,10.47
2019-05-09T23:14:30.991Z,10.40
2019-05-09T23:16:59.801Z,9.10
2019-05-09T23:19:28.405Z,8.77
2019-05-09T23:21:56.999Z,9.70
2019-05-09T23:24:28.895Z,9.43
2019-05-09T23:26:57.672Z,8.60
2019-05-09T23:29:26.257Z,7.87
2019-05-09T23:32:09.398Z,8.23
2019-05-09T23:34:37.976Z,7.37
2019-05-09T23:37:06.569Z,7.73
2019-05-09T23:39:41.298Z,7.90
2019-05-09T23:42:09.936Z,7.80
2019-05-09T23:44:38.563Z,6.60
2019-05-09T23:47:07.145Z,6.03
2019-05-09T23:49:35.731Z,6.03
2019-05-09T23:52:04.317Z,7.23
2019-05-09T23:54:50.757Z,5.47
2019-05-09T23:57:49.702Z,5.53
